createdAt,value
2023-09-07T00:00:06.966Z,52.90
2023-09-07T00:05:10.480Z,52.90
2023-09-07T00:10:13.812Z,52.90
2023-09-07T00:15:20.130Z,52.90
2023-09-07T00:20:24.690Z,52.80
2023-09-07T00:25:27.637Z,52.90
2023-09-07T00:30:31.905Z,52.90
2023-09-07T00:35:35.452Z,52.90
2023-09-07T00:40:38.421Z,52.90
2023-09-07T00:45:42.932Z,52.90
2023-09-07T00:50:46.282Z,52.90
2023-09-07T00:55:49.214Z,52.90
2023-09-07T01:00:53.658Z,52.90
2023-09-07T01:06:04.419Z,52.90
2023-09-07T01:11:15.440Z,52.90
2023-09-07T01:16:21.628Z,53.00
2023-09-07T01:21:26.352Z,52.90
2023-09-07T01:26:30.950Z,52.90
2023-09-07T01:31:37.088Z,52.80
2023-09-07T01:36:40.300Z,52.90
2023-09-07T01:41:44.571Z,52.90
2023-09-07T01:46:47.587Z,52.90
2023-09-07T01:51:53.513Z,52.90
2023-09-07T01:56:57.749Z,52.90
2023-09-07T02:02:00.676Z,52.90
2023-09-07T02:07:05.160Z,52.90
2023-09-07T02:12:09.572Z,52.90
2023-09-07T02:17:15.374Z,52.90
2023-09-07T02:22:18.384Z,52.80
2023-09-07T02:27:22.604Z,52.80
2023-09-07T02:32:25.585Z,52.80
2023-09-07T02:37:28.524Z,52.80
2023-09-07T02:42:32.731Z,52.80
2023-09-07T02:47:35.611Z,52.80
2023-09-07T02:52:38.875Z,52.90
2023-09-07T02:57:43.099Z,52.80
2023-09-07T03:02:46.356Z,52.80
2023-09-07T03:07:49.611Z,52.90
2023-09-07T03:12:55.841Z,52.90
2023-09-07T03:17:58.766Z,52.90
2023-09-07T03:23:01.640Z,52.90
2023-09-07T03:28:06.762Z,52.90
2023-09-07T03:33:09.715Z,52.90
2023-09-07T03:38:12.696Z,52.80
2023-09-07T03:43:16.964Z,52.90
2023-09-07T03:48:20.666Z,52.90
2023-09-07T03:53:23.560Z,52.80
2023-09-07T03:58:27.783Z,52.80
2023-09-07T04:03:30.815Z,52.80
2023-09-07T04:08:34.037Z,52.80
2023-09-07T04:13:38.481Z,52.80
2023-09-07T04:18:41.404Z,52.80
2023-09-07T04:23:44.261Z,52.70
2023-09-07T04:28:48.683Z,52.80
2023-09-07T04:33:51.605Z,52.80
2023-09-07T04:38:54.448Z,52.70
2023-09-07T04:43:59.106Z,52.70
2023-09-07T04:49:02.045Z,52.70
2023-09-07T04:54:05.236Z,52.60
2023-09-07T04:59:09.648Z,52.60
2023-09-07T05:04:13.243Z,52.60
2023-09-07T05:09:16.219Z,52.60
2023-09-07T05:14:20.492Z,52.60
2023-09-07T05:19:24.154Z,52.60
2023-09-07T05:24:27.223Z,52.50
2023-09-07T05:29:31.523Z,52.50
2023-09-07T05:34:34.490Z,52.50
2023-09-07T05:39:37.370Z,52.50
2023-09-07T05:44:41.766Z,52.50
2023-09-07T05:49:44.588Z,52.40
2023-09-07T05:54:47.489Z,52.40
2023-09-07T05:59:51.730Z,52.40
2023-09-07T06:04:54.703Z,52.40
2023-09-07T06:09:59.760Z,52.40
2023-09-07T06:15:04.407Z,52.30
2023-09-07T06:20:08.617Z,52.50
2023-09-07T06:25:11.676Z,52.50
2023-09-07T06:30:16.108Z,52.60
2023-09-07T06:35:19.837Z,53.20
2023-09-07T06:40:22.811Z,53.30
2023-09-07T06:45:27.152Z,53.70
2023-09-07T06:50:33.556Z,54.20
2023-09-07T06:55:36.502Z,54.40
2023-09-07T07:00:40.823Z,54.20
2023-09-07T07:05:44.241Z,54.60
2023-09-07T07:10:47.199Z,54.60
2023-09-07T07:16:09.804Z,54.80
2023-09-07T07:21:12.721Z,55.50
2023-09-07T07:26:15.708Z,55.60
2023-09-07T07:31:20.045Z,55.20
2023-09-07T07:36:23.152Z,55.10
2023-09-07T07:41:26.106Z,55.00
2023-09-07T07:46:30.473Z,54.80
2023-09-07T07:51:34.035Z,55.00
2023-09-07T07:56:37.002Z,55.20
2023-09-07T08:01:41.448Z,55.30
2023-09-07T08:06:44.383Z,55.10
2023-09-07T08:11:47.260Z,55.00
2023-09-07T08:16:51.657Z,54.80
2023-09-07T08:21:54.709Z,55.00
2023-09-07T08:26:58.786Z,54.90
2023-09-07T08:32:05.454Z,54.90
2023-09-07T08:37:09.846Z,54.70
2023-09-07T08:42:13.327Z,54.90
2023-09-07T08:47:18.681Z,55.10
2023-09-07T08:52:23.113Z,55.10
2023-09-07T08:57:27.246Z,55.30
2023-09-07T09:02:31.613Z,55.30
2023-09-07T09:07:34.662Z,55.30
2023-09-07T09:12:37.563Z,55.30
2023-09-07T09:17:41.902Z,55.70
2023-09-07T09:22:45.244Z,55.60
2023-09-07T09:27:48.702Z,55.70
2023-09-07T09:32:53.342Z,55.40
2023-09-07T09:37:56.738Z,55.30
2023-09-07T09:43:01.489Z,55.60
2023-09-07T09:48:07.900Z,55.50
2023-09-07T09:53:12.295Z,55.50
2023-09-07T09:58:15.494Z,55.50
2023-09-07T10:03:25.045Z,55.30
2023-09-07T10:08:32.315Z,55.50
2023-09-07T10:13:35.950Z,55.30
2023-09-07T10:18:42.031Z,55.50
2023-09-07T10:23:47.123Z,55.40
2023-09-07T10:29:01.661Z,55.20
2023-09-07T10:34:13.340Z,55.50
2023-09-07T10:39:19.415Z,55.30
2023-09-07T10:44:27.866Z,55.50
2023-09-07T10:49:32.138Z,55.20
2023-09-07T10:54:35.196Z,55.00
2023-09-07T10:59:38.317Z,55.00
2023-09-07T11:04:42.739Z,54.90
2023-09-07T11:09:45.945Z,54.70
2023-09-07T11:14:50.327Z,54.70
2023-09-07T11:19:55.862Z,54.80
2023-09-07T11:24:58.763Z,54.70
2023-09-07T11:30:04.434Z,54.80
2023-09-07T11:35:09.369Z,54.90
2023-09-07T11:40:13.499Z,55.10
2023-09-07T11:45:16.730Z,54.80
2023-09-07T11:50:21.779Z,55.10
2023-09-07T11:55:24.764Z,54.90
2023-09-07T12:00:27.756Z,55.00
2023-09-07T12:05:32.016Z,55.10
2023-09-07T12:10:34.972Z,55.00
2023-09-07T12:15:37.946Z,54.90
2023-09-07T12:20:42.227Z,55.00
2023-09-07T12:25:45.112Z,55.00
2023-09-07T12:30:48.248Z,55.00
2023-09-07T12:35:52.519Z,54.90
2023-09-07T12:40:55.517Z,55.40
2023-09-07T12:45:58.503Z,55.40
2023-09-07T12:51:02.852Z,55.40
2023-09-07T12:56:06.228Z,55.40
2023-09-07T13:01:11.168Z,55.60
2023-09-07T13:06:18.280Z,55.50
2023-09-07T13:11:21.270Z,55.50
2023-09-07T13:16:24.180Z,55.30
2023-09-07T13:21:28.420Z,55.40
2023-09-07T13:26:31.532Z,55.40
2023-09-07T13:31:34.511Z,55.40
2023-09-07T13:36:38.766Z,55.50
2023-09-07T13:41:41.809Z,55.60
2023-09-07T13:46:45.933Z,55.70
2023-09-07T13:51:50.228Z,55.60
2023-09-07T13:56:54.807Z,55.70
2023-09-07T14:01:57.743Z,55.70
2023-09-07T14:07:01.986Z,55.70
2023-09-07T14:12:05.477Z,55.60
2023-09-07T14:17:08.405Z,55.60
2023-09-07T14:22:12.658Z,55.60
2023-09-07T14:27:15.525Z,55.60
2023-09-07T14:32:18.374Z,55.60
2023-09-07T14:37:22.663Z,55.60
2023-09-07T14:42:25.799Z,55.60
2023-09-07T14:47:28.748Z,55.60
2023-09-07T14:52:38.096Z,55.60
2023-09-07T14:57:41.251Z,55.60
2023-09-07T15:02:44.260Z,55.60
2023-09-07T15:07:48.516Z,55.70
2023-09-07T15:12:51.461Z,55.70
2023-09-07T15:17:54.435Z,55.80
2023-09-07T15:22:59.115Z,55.80
2023-09-07T15:28:02.108Z,55.80
2023-09-07T15:33:05.619Z,55.80
2023-09-07T15:38:09.909Z,55.90
2023-09-07T15:43:13.015Z,55.90
2023-09-07T15:48:16.172Z,55.90
2023-09-07T15:53:21.516Z,56.00
2023-09-07T15:58:24.434Z,56.00
2023-09-07T16:03:27.411Z,56.00
2023-09-07T16:08:32.004Z,56.00
2023-09-07T16:13:36.188Z,56.00
2023-09-07T16:18:39.130Z,56.00
2023-09-07T16:23:44.609Z,56.10
2023-09-07T16:28:47.546Z,56.10
2023-09-07T16:33:52.553Z,56.10
2023-09-07T16:38:56.752Z,56.10
2023-09-07T16:43:59.668Z,56.10
2023-09-07T16:49:02.647Z,56.10
2023-09-07T16:54:07.078Z,56.10
2023-09-07T16:59:30.363Z,56.20
2023-09-07T17:04:34.985Z,56.30
2023-09-07T17:09:39.386Z,56.40
2023-09-07T17:14:42.730Z,56.50
2023-09-07T17:19:45.771Z,56.50
2023-09-07T17:24:50.021Z,56.60
2023-09-07T17:29:52.944Z,56.40
2023-09-07T17:34:56.134Z,56.50
2023-09-07T17:40:03.137Z,56.70
2023-09-07T17:45:07.070Z,58.70
2023-09-07T17:50:10.757Z,63.30
2023-09-07T17:55:15.050Z,63.80
2023-09-07T18:00:18.473Z,63.40
2023-09-07T18:05:22.260Z,63.30
2023-09-07T18:10:26.815Z,62.80
2023-09-07T18:15:29.733Z,62.40
2023-09-07T18:20:32.673Z,61.70
2023-09-07T18:25:38.380Z,61.40
2023-09-07T18:30:42.761Z,61.60
2023-09-07T18:35:46.173Z,61.10
2023-09-07T18:40:50.689Z,60.90
2023-09-07T18:45:53.575Z,60.60
2023-09-07T18:51:02.190Z,60.40
2023-09-07T18:56:07.449Z,60.40
2023-09-07T19:01:15.145Z,60.10
2023-09-07T19:06:18.186Z,59.90
2023-09-07T19:11:22.610Z,59.80
2023-09-07T19:16:28.070Z,59.60
2023-09-07T19:21:34.188Z,59.80
2023-09-07T19:26:41.441Z,59.90
2023-09-07T19:31:44.715Z,60.00
2023-09-07T19:36:47.680Z,60.40
2023-09-07T19:41:51.990Z,60.50
2023-09-07T19:46:57.071Z,60.40
2023-09-07T19:52:00.129Z,60.70
2023-09-07T19:57:04.647Z,60.60
2023-09-07T20:02:08.190Z,60.60
2023-09-07T20:07:11.121Z,60.50
2023-09-07T20:12:15.353Z,60.30
2023-09-07T20:17:18.837Z,60.20
2023-09-07T20:22:22.129Z,60.20
2023-09-07T20:27:28.309Z,60.10
2023-09-07T20:32:31.251Z,60.20
2023-09-07T20:37:34.259Z,60.20
2023-09-07T20:42:38.523Z,60.10
2023-09-07T20:47:41.532Z,60.20
2023-09-07T20:52:44.528Z,60.20
2023-09-07T20:57:49.831Z,60.40
2023-09-07T21:02:53.079Z,60.50
2023-09-07T21:07:57.398Z,60.50
2023-09-07T21:13:01.893Z,60.40
2023-09-07T21:18:05.545Z,60.30
2023-09-07T21:23:08.509Z,60.60
2023-09-07T21:28:12.813Z,60.60
2023-09-07T21:33:15.753Z,60.30
2023-09-07T21:38:18.640Z,60.10
2023-09-07T21:43:23.036Z,59.90
2023-09-07T21:48:26.333Z,59.90
2023-09-07T21:53:29.370Z,59.80
2023-09-07T21:58:33.900Z,59.20
2023-09-07T22:03:37.047Z,59.20
2023-09-07T22:08:40.089Z,59.20
2023-09-07T22:13:44.692Z,59.20
2023-09-07T22:18:47.761Z,59.10
2023-09-07T22:23:50.769Z,59.80
2023-09-07T22:28:56.340Z,59.30
2023-09-07T22:33:59.264Z,59.30
2023-09-07T22:39:02.446Z,59.30
2023-09-07T22:44:07.145Z,59.50
2023-09-07T22:49:10.220Z,59.70
2023-09-07T22:54:13.256Z,59.80
2023-09-07T22:59:17.653Z,59.70
2023-09-07T23:04:20.718Z,59.70
2023-09-07T23:09:27.967Z,59.80
2023-09-07T23:14:32.351Z,59.90
2023-09-07T23:19:35.370Z,60.10
2023-09-07T23:24:38.287Z,60.10
2023-09-07T23:29:42.569Z,60.20
2023-09-07T23:34:45.507Z,60.30
2023-09-07T23:39:48.524Z,60.20
2023-09-07T23:44:53.538Z,60.30
2023-09-07T23:49:56.404Z,60.40
2023-09-07T23:54:59.713Z,60.60
